Time;durP1;ratioP1;P1;durP2;ratioP2;P2;SDS_P1;SDS_P2;PMS_P1;PMS_P2;Temp;Humidity;BMP_temperature;BMP_pressure;BME280_temperature;BME280_humidity;BME280_pressure;Samples;Min_cycle;Max_cycle;Signal;HPM_P1;HPM_P2
2023/11/13 00:02:40;;;;;;;35.37;18.13;;;4.00;99.90;;;;;;5064026;28;20204;-73
2023/11/13 00:05:27;;;;;;;33.63;15.93;;;4.10;99.90;;;;;;5065490;28;20315;-73
2023/11/13 00:08:14;;;;;;;35.73;15.37;;;4.00;99.90;;;;;;5067233;28;20208;-73
2023/11/13 00:11:03;;;;;;;39.53;18.77;;;4.10;99.90;;;;;;5061510;28;20721;-73
2023/11/13 00:13:51;;;;;;;39.57;17.07;;;4.10;99.90;;;;;;5066449;28;20211;-73
2023/11/13 00:16:38;;;;;;;35.40;14.67;;;4.20;99.90;;;;;;5059992;28;20203;-73
2023/11/13 00:19:27;;;;;;;30.90;13.90;;;4.10;99.90;;;;;;5053320;28;20212;-73
2023/11/13 00:22:14;;;;;;;35.00;17.23;;;4.10;99.90;;;;;;5061854;28;20563;-73
2023/11/13 00:25:01;;;;;;;34.63;16.83;;;4.10;99.90;;;;;;5064103;28;20428;-72
2023/11/13 00:27:49;;;;;;;37.27;17.93;;;4.00;99.90;;;;;;5067121;28;20655;-74
2023/11/13 00:30:36;;;;;;;31.77;16.37;;;4.00;99.90;;;;;;5058162;28;20200;-73
2023/11/13 00:33:24;;;;;;;33.23;17.20;;;4.00;99.90;;;;;;5062565;28;20663;-73
2023/11/13 00:36:13;;;;;;;36.23;17.23;;;4.00;99.90;;;;;;5059365;28;20220;-73
2023/11/13 00:39:01;;;;;;;36.50;17.40;;;4.00;99.90;;;;;;5065215;28;20205;-73
2023/11/13 00:41:48;;;;;;;33.43;17.37;;;4.00;99.90;;;;;;5061566;28;20307;-73
2023/11/13 00:44:35;;;;;;;29.87;15.27;;;4.00;99.90;;;;;;5070952;28;20207;-73
2023/11/13 00:47:23;;;;;;;37.63;17.23;;;4.00;99.90;;;;;;5065978;28;20205;-73
2023/11/13 00:50:11;;;;;;;34.77;16.63;;;4.00;99.90;;;;;;5059708;28;20243;-73
2023/11/13 00:53:00;;;;;;;35.90;17.00;;;4.00;99.90;;;;;;5062428;28;20200;-73
2023/11/13 00:55:47;;;;;;;31.83;15.20;;;4.00;99.90;;;;;;5057671;28;20331;-73
2023/11/13 00:58:34;;;;;;;30.90;14.57;;;4.00;99.90;;;;;;5055794;28;20208;-73
2023/11/13 01:01:22;;;;;;;29.87;12.90;;;4.00;99.90;;;;;;5062197;28;20201;-73
2023/11/13 01:04:09;;;;;;;26.90;14.00;;;4.00;99.90;;;;;;5067221;28;20201;-73
2023/11/13 01:06:57;;;;;;;28.57;13.63;;;4.10;99.90;;;;;;5053845;28;20272;-73
2023/11/13 01:09:45;;;;;;;27.60;13.57;;;4.10;99.90;;;;;;5063978;28;20228;-73
2023/11/13 01:12:33;;;;;;;30.03;13.63;;;4.00;99.90;;;;;;5067066;28;20264;-73
2023/11/13 01:15:20;;;;;;;27.77;12.80;;;4.00;99.90;;;;;;5059700;28;20197;-73
2023/11/13 01:18:07;;;;;;;24.53;11.87;;;4.10;99.90;;;;;;5067044;28;20193;-72
2023/11/13 01:20:55;;;;;;;26.20;12.37;;;4.00;99.90;;;;;;5058525;28;20202;-73
2023/11/13 01:23:42;;;;;;;30.33;13.30;;;3.90;99.90;;;;;;5062385;28;20194;-73
2023/11/13 01:26:31;;;;;;;25.90;12.43;;;3.90;99.90;;;;;;5065191;28;20224;-73
2023/11/13 01:29:18;;;;;;;29.93;13.10;;;3.90;99.90;;;;;;5062856;28;20557;-73
2023/11/13 01:32:05;;;;;;;27.00;13.33;;;3.80;99.90;;;;;;5069900;28;20275;-73
2023/11/13 01:34:53;;;;;;;27.10;12.77;;;3.90;99.90;;;;;;5068688;28;20205;-73
2023/11/13 01:37:40;;;;;;;29.57;14.10;;;3.80;99.90;;;;;;5060352;28;20208;-73
2023/11/13 01:40:27;;;;;;;27.73;13.20;;;3.80;99.90;;;;;;5058889;28;20212;-73
2023/11/13 01:43:22;;;;;;;24.57;11.97;;;3.80;99.90;;;;;;5064446;28;20204;-73
2023/11/13 01:46:10;;;;;;;26.43;13.33;;;3.70;99.90;;;;;;5064412;28;20220;-73
2023/11/13 01:48:58;;;;;;;25.00;12.20;;;3.70;99.90;;;;;;5060378;28;20200;-73
2023/11/13 01:51:45;;;;;;;25.67;12.20;;;3.70;99.90;;;;;;5069044;28;20245;-73
2023/11/13 01:54:32;;;;;;;24.43;12.70;;;3.70;99.90;;;;;;5068486;28;20200;-73
2023/11/13 01:57:19;;;;;;;31.27;12.63;;;3.80;99.90;;;;;;5065631;28;20189;-73
2023/11/13 02:00:09;;;;;;;27.60;13.43;;;3.70;99.90;;;;;;5068728;28;20196;-73
2023/11/13 02:02:56;;;;;;;29.40;13.73;;;3.70;99.90;;;;;;5067680;28;20205;-73
2023/11/13 02:05:45;;;;;;;27.70;13.00;;;3.70;99.90;;;;;;5050126;28;20217;-73
2023/11/13 02:08:32;;;;;;;28.50;13.87;;;3.70;99.90;;;;;;5059590;28;20280;-73
2023/11/13 02:11:19;;;;;;;24.13;12.70;;;3.70;99.90;;;;;;5067231;28;20208;-73
2023/11/13 02:14:06;;;;;;;25.60;12.67;;;3.70;99.90;;;;;;5068449;28;20205;-73
2023/11/13 02:17:03;;;;;;;24.97;12.87;;;3.70;99.90;;;;;;5061795;28;20192;-73
2023/11/13 02:19:51;;;;;;;28.67;13.37;;;3.70;99.90;;;;;;5069114;28;20641;-73
2023/11/13 02:22:38;;;;;;;24.37;12.83;;;3.70;99.90;;;;;;5064401;28;20230;-73
2023/11/13 02:25:27;;;;;;;26.30;12.93;;;3.60;99.90;;;;;;5055377;28;20225;-73
2023/11/13 02:28:14;;;;;;;26.63;14.00;;;3.70;99.90;;;;;;5062453;28;20569;-73
2023/11/13 02:31:01;;;;;;;27.93;12.40;;;3.70;99.90;;;;;;5053857;28;20210;-73
2023/11/13 02:33:49;;;;;;;26.30;12.67;;;3.70;99.90;;;;;;5069121;28;20207;-73
2023/11/13 02:36:36;;;;;;;27.67;13.77;;;3.70;99.90;;;;;;5068845;28;20256;-74
2023/11/13 02:39:23;;;;;;;26.63;13.00;;;3.80;99.90;;;;;;5068668;28;20193;-73
2023/11/13 02:42:12;;;;;;;28.67;14.60;;;3.80;99.90;;;;;;5066348;28;20310;-73
2023/11/13 02:44:59;;;;;;;29.67;14.77;;;3.80;99.90;;;;;;5062534;28;20204;-73
2023/11/13 02:47:46;;;;;;;28.13;13.57;;;3.80;99.90;;;;;;5058036;28;20201;-73
2023/11/13 02:50:33;;;;;;;27.37;13.20;;;3.80;99.90;;;;;;5063724;28;20204;-73
2023/11/13 02:53:20;;;;;;;26.20;13.07;;;3.80;99.90;;;;;;5062025;28;20771;-73
2023/11/13 02:56:08;;;;;;;25.70;14.47;;;3.90;99.90;;;;;;5064971;28;20200;-73
2023/11/13 02:58:57;;;;;;;25.20;12.77;;;3.80;99.90;;;;;;5063159;28;20198;-73
2023/11/13 03:01:44;;;;;;;30.03;13.97;;;3.80;99.90;;;;;;5067693;28;20196;-73
2023/11/13 03:04:31;;;;;;;23.77;12.33;;;3.90;99.90;;;;;;5066336;28;20213;-73
2023/11/13 03:07:19;;;;;;;22.93;12.20;;;3.90;99.90;;;;;;5065266;28;20643;-73
2023/11/13 03:10:06;;;;;;;24.10;10.47;;;3.90;99.90;;;;;;5057765;28;20236;-73
2023/11/13 03:12:54;;;;;;;24.67;12.43;;;3.90;99.90;;;;;;5063428;28;20690;-73
2023/11/13 03:15:42;;;;;;;21.70;11.97;;;3.90;99.90;;;;;;5064381;28;20684;-73
2023/11/13 03:18:31;;;;;;;24.67;11.37;;;4.00;99.90;;;;;;5061510;28;20211;-73
2023/11/13 03:21:18;;;;;;;23.10;11.70;;;4.00;99.90;;;;;;5067018;28;20200;-73
2023/11/13 03:24:06;;;;;;;25.00;11.87;;;4.00;99.90;;;;;;5060520;28;20542;-73
2023/11/13 03:26:53;;;;;;;24.00;11.23;;;4.00;99.90;;;;;;5060830;28;20223;-73
2023/11/13 03:29:40;;;;;;;21.07;11.60;;;4.00;99.90;;;;;;5064845;28;20192;-73
2023/11/13 03:32:29;;;;;;;21.43;10.90;;;3.90;99.90;;;;;;5054463;28;20664;-73
2023/11/13 03:35:16;;;;;;;25.30;11.57;;;3.90;99.90;;;;;;5059548;28;20208;-73
2023/11/13 03:38:04;;;;;;;20.63;10.13;;;3.90;99.90;;;;;;5064674;28;20223;-73
2023/11/13 03:40:51;;;;;;;19.93;10.90;;;3.90;99.90;;;;;;5065340;28;20701;-73
2023/11/13 03:43:38;;;;;;;21.60;10.70;;;4.00;99.90;;;;;;5062240;28;20211;-73
2023/11/13 03:46:26;;;;;;;18.30;9.50;;;3.90;99.90;;;;;;5055262;28;20592;-73
2023/11/13 03:49:15;;;;;;;22.00;11.00;;;3.90;99.90;;;;;;5059222;28;20241;-73
2023/11/13 03:52:02;;;;;;;21.27;10.63;;;4.00;99.90;;;;;;5062485;28;20201;-73
2023/11/13 03:54:49;;;;;;;19.47;10.00;;;4.00;99.90;;;;;;5062772;28;20658;-73
2023/11/13 03:57:36;;;;;;;22.20;10.90;;;3.90;99.90;;;;;;5063885;28;20201;-74
2023/11/13 04:00:23;;;;;;;22.40;10.70;;;3.90;99.90;;;;;;5065843;28;20200;-74
2023/11/13 04:03:11;;;;;;;16.70;9.80;;;3.90;99.90;;;;;;5065274;28;20736;-73
2023/11/13 04:05:59;;;;;;;21.73;10.40;;;3.90;99.90;;;;;;5056550;28;20308;-73
2023/11/13 04:08:46;;;;;;;17.93;10.00;;;3.90;99.90;;;;;;5063173;28;20211;-73
2023/11/13 04:11:34;;;;;;;17.27;9.40;;;3.90;99.90;;;;;;5066622;28;20228;-73
2023/11/13 04:14:22;;;;;;;19.03;9.83;;;3.90;99.90;;;;;;5058151;28;20213;-73
2023/11/13 04:17:09;;;;;;;20.40;9.80;;;3.90;99.90;;;;;;5060524;28;20190;-73
2023/11/13 04:19:56;;;;;;;18.37;8.53;;;3.90;99.90;;;;;;5064238;28;20197;-73
2023/11/13 04:22:45;;;;;;;17.27;9.70;;;3.90;99.90;;;;;;5055744;28;20638;-73
2023/11/13 04:25:32;;;;;;;17.53;9.40;;;3.90;99.90;;;;;;5060514;28;20223;-73
2023/11/13 04:28:20;;;;;;;19.87;9.53;;;3.90;99.90;;;;;;5064404;28;20222;-73
2023/11/13 04:31:08;;;;;;;17.33;8.23;;;3.90;99.90;;;;;;5061499;28;20659;-73
2023/11/13 04:33:55;;;;;;;15.70;7.83;;;3.80;99.90;;;;;;5063091;28;20201;-73
2023/11/13 04:36:42;;;;;;;17.13;8.93;;;3.80;99.90;;;;;;5055979;28;20687;-73
2023/11/13 04:39:31;;;;;;;21.37;9.90;;;3.80;99.90;;;;;;5065873;28;20200;-73
2023/11/13 04:42:18;;;;;;;17.33;8.23;;;3.80;99.90;;;;;;5059751;28;20834;-73
2023/11/13 04:45:06;;;;;;;22.77;9.10;;;3.70;99.90;;;;;;5064189;28;20201;-73
2023/11/13 04:47:54;;;;;;;20.10;10.10;;;3.70;99.90;;;;;;5066773;28;20220;-73
2023/11/13 04:50:41;;;;;;;18.90;9.37;;;3.70;99.90;;;;;;5062091;28;20322;-73
2023/11/13 04:53:28;;;;;;;17.70;9.57;;;3.70;99.90;;;;;;5069214;28;20193;-73
2023/11/13 04:56:17;;;;;;;17.23;9.47;;;3.70;99.90;;;;;;5071763;28;20208;-73
2023/11/13 04:59:04;;;;;;;18.00;9.07;;;3.70;99.90;;;;;;5060220;28;20204;-73
2023/11/13 05:01:51;;;;;;;19.37;9.50;;;3.70;99.90;;;;;;5059454;28;20197;-73
2023/11/13 05:04:39;;;;;;;20.37;9.53;;;3.70;99.90;;;;;;5078638;28;20204;-73
2023/11/13 05:07:27;;;;;;;19.53;9.93;;;3.60;99.90;;;;;;5067488;28;20224;-73
2023/11/13 05:10:14;;;;;;;20.13;9.20;;;3.70;99.90;;;;;;5053331;28;20249;-73
2023/11/13 05:13:03;;;;;;;16.50;8.60;;;3.70;99.90;;;;;;5055063;28;20215;-73
2023/11/13 05:15:51;;;;;;;20.27;11.00;;;3.70;99.90;;;;;;5053982;28;20259;-73
2023/11/13 05:18:38;;;;;;;19.93;9.80;;;3.60;99.90;;;;;;5057843;28;20212;-73
2023/11/13 05:21:25;;;;;;;24.67;10.60;;;3.60;99.90;;;;;;5059047;28;20571;-73
2023/11/13 05:24:12;;;;;;;22.47;10.07;;;3.70;99.90;;;;;;5065236;28;20324;-73
2023/11/13 05:26:59;;;;;;;19.47;10.13;;;3.70;99.90;;;;;;5054694;28;20726;-73
2023/11/13 05:29:48;;;;;;;19.23;9.90;;;3.70;99.90;;;;;;5062294;28;20211;-73
2023/11/13 05:32:35;;;;;;;18.70;9.97;;;3.70;99.90;;;;;;5071100;28;20278;-73
2023/11/13 05:35:23;;;;;;;14.03;7.37;;;3.70;99.90;;;;;;5054689;28;20936;-73
2023/11/13 05:38:10;;;;;;;18.40;9.27;;;3.50;99.90;;;;;;5053809;28;20570;-73
2023/11/13 05:40:58;;;;;;;19.13;9.33;;;3.60;99.90;;;;;;5060061;28;20211;-73
2023/11/13 05:43:45;;;;;;;15.90;9.27;;;3.50;99.90;;;;;;5059452;28;20201;-73
2023/11/13 05:46:35;;;;;;;20.40;10.57;;;3.60;99.90;;;;;;5054129;28;20226;-74
2023/11/13 05:49:22;;;;;;;19.60;9.50;;;3.60;99.90;;;;;;5063558;28;20203;-74
2023/11/13 05:52:09;;;;;;;18.53;10.17;;;3.60;99.90;;;;;;5061174;28;20193;-73
2023/11/13 05:54:56;;;;;;;16.00;9.53;;;3.60;99.90;;;;;;5063926;28;20188;-73
2023/11/13 05:57:45;;;;;;;18.53;9.87;;;3.60;99.90;;;;;;5067429;28;20580;-73
2023/11/13 06:00:32;;;;;;;18.73;9.80;;;3.70;99.90;;;;;;5062593;28;20229;-73
2023/11/13 06:03:21;;;;;;;19.77;9.53;;;3.70;99.90;;;;;;5062718;28;20543;-73
2023/11/13 06:06:13;;;;;;;20.93;10.50;;;3.70;99.90;;;;;;5064949;28;20208;-73
2023/11/13 06:09:00;;;;;;;25.63;13.33;;;3.70;99.90;;;;;;5065113;28;20748;-73
2023/11/13 06:11:47;;;;;;;21.33;10.60;;;3.70;99.90;;;;;;5067834;28;20213;-73
2023/11/13 06:14:34;;;;;;;29.50;13.43;;;3.70;99.90;;;;;;5066160;28;20830;-73
2023/11/13 06:17:23;;;;;;;28.60;15.53;;;3.70;99.90;;;;;;5066244;28;20201;-73
2023/11/13 06:20:13;;;;;;;29.03;15.13;;;3.70;99.90;;;;;;5066535;28;20201;-74
2023/11/13 06:23:01;;;;;;;35.50;15.93;;;3.80;99.90;;;;;;5062178;28;20215;-73
2023/11/13 06:25:48;;;;;;;34.83;16.97;;;3.80;99.90;;;;;;5066764;28;20207;-73
2023/11/13 06:28:38;;;;;;;31.40;14.10;;;3.90;99.90;;;;;;5065793;28;20196;-73
2023/11/13 06:31:25;;;;;;;25.77;13.80;;;4.00;99.90;;;;;;5068765;28;20683;-73
2023/11/13 06:34:13;;;;;;;22.00;12.50;;;4.00;99.90;;;;;;5065813;28;20205;-74
2023/11/13 06:37:01;;;;;;;24.90;12.57;;;4.10;99.90;;;;;;5058697;28;20568;-73
2023/11/13 06:39:49;;;;;;;23.23;11.80;;;4.10;99.90;;;;;;5066344;28;20211;-73
2023/11/13 06:42:36;;;;;;;22.37;10.77;;;4.10;99.90;;;;;;5065328;28;20200;-73
2023/11/13 06:45:23;;;;;;;20.90;10.60;;;4.10;99.90;;;;;;5062571;28;20204;-73
2023/11/13 06:48:10;;;;;;;20.63;9.23;;;4.10;99.90;;;;;;5064397;28;20263;-73
2023/11/13 06:50:57;;;;;;;18.80;9.87;;;4.20;99.90;;;;;;5064447;28;20203;-73
2023/11/13 06:53:46;;;;;;;16.47;9.00;;;4.20;99.90;;;;;;5063505;28;20216;-73
2023/11/13 06:56:33;;;;;;;17.53;9.40;;;4.20;99.90;;;;;;5063278;28;20780;-73
2023/11/13 06:59:20;;;;;;;17.03;9.17;;;4.10;99.90;;;;;;5063523;28;20307;-73
2023/11/13 07:02:08;;;;;;;16.13;8.43;;;4.20;99.90;;;;;;5065294;28;20698;-73
2023/11/13 07:04:55;;;;;;;18.73;9.20;;;4.20;99.90;;;;;;5059721;28;20213;-73
2023/11/13 07:07:42;;;;;;;17.73;9.50;;;4.30;99.90;;;;;;5065621;28;20224;-73
2023/11/13 07:10:34;;;;;;;17.60;9.10;;;4.20;99.90;;;;;;5067221;28;20236;-73
2023/11/13 07:13:21;;;;;;;22.13;9.00;;;4.30;99.90;;;;;;5058098;28;20664;-73
2023/11/13 07:16:09;;;;;;;15.47;9.07;;;4.30;99.90;;;;;;5066131;28;20196;-73
2023/11/13 07:18:58;;;;;;;17.13;8.83;;;4.40;99.90;;;;;;5074438;28;20659;-73
2023/11/13 07:21:45;;;;;;;6.17;2.90;;;4.50;99.90;;;;;;5063293;28;20210;-73
2023/11/13 07:24:36;;;;;;;17.73;9.07;;;4.50;99.90;;;;;;5066067;28;20208;-74
2023/11/13 07:27:25;;;;;;;15.60;8.03;;;4.50;99.90;;;;;;5060281;28;20217;-73
2023/11/13 07:30:12;;;;;;;17.63;9.00;;;4.40;99.90;;;;;;5063810;28;20727;-73
2023/11/13 07:33:01;;;;;;;20.60;9.80;;;4.50;99.90;;;;;;5060174;28;20200;-74
2023/11/13 07:35:48;;;;;;;22.10;9.43;;;4.50;99.90;;;;;;5061983;28;20220;-73
2023/11/13 07:38:35;;;;;;;17.43;8.90;;;4.70;99.90;;;;;;5066126;28;20197;-73
2023/11/13 07:41:22;;;;;;;10.83;5.37;;;4.80;99.90;;;;;;5059272;28;20196;-72
2023/11/13 07:44:11;;;;;;;18.03;8.40;;;4.90;99.90;;;;;;5056905;28;20204;-73
2023/11/13 07:46:58;;;;;;;14.90;9.00;;;4.80;99.90;;;;;;5060899;28;20220;-73
2023/11/13 07:49:45;;;;;;;21.17;8.37;;;4.80;99.90;;;;;;5056329;28;20220;-73
2023/11/13 07:52:33;;;;;;;15.60;8.93;;;4.80;99.90;;;;;;5058651;28;20204;-73
2023/11/13 07:55:20;;;;;;;14.60;7.53;;;4.80;99.90;;;;;;5062804;28;20206;-73
2023/11/13 07:58:07;;;;;;;14.57;8.03;;;4.80;99.90;;;;;;5049540;28;20208;-73
2023/11/13 08:00:57;;;;;;;13.33;7.87;;;4.80;99.90;;;;;;5068391;28;20404;-73
2023/11/13 08:03:44;;;;;;;19.70;7.83;;;4.80;99.90;;;;;;5068338;28;20667;-73
2023/11/13 08:06:31;;;;;;;14.77;8.10;;;4.80;99.90;;;;;;5052349;28;20283;-73
2023/11/13 08:09:20;;;;;;;15.87;7.33;;;4.80;99.90;;;;;;5064848;28;20240;-73
2023/11/13 08:12:08;;;;;;;15.27;6.90;;;4.80;99.90;;;;;;5061623;28;20565;-73
2023/11/13 08:14:56;;;;;;;13.77;7.77;;;4.80;99.90;;;;;;5060927;28;20666;-73
2023/11/13 08:17:45;;;;;;;12.40;7.00;;;4.90;99.90;;;;;;5059563;28;20210;-73
2023/11/13 08:20:33;;;;;;;11.70;7.07;;;4.90;99.90;;;;;;5067440;28;20856;-73
2023/11/13 08:23:20;;;;;;;11.20;5.27;;;4.90;99.90;;;;;;5067137;28;20196;-73
2023/11/13 08:26:08;;;;;;;11.63;6.67;;;5.10;99.90;;;;;;5068022;28;20200;-73
2023/11/13 08:28:57;;;;;;;10.93;6.57;;;5.10;99.90;;;;;;5071389;28;20678;-73
2023/11/13 08:31:44;;;;;;;9.43;4.27;;;5.10;99.90;;;;;;5070177;28;20201;-73
2023/11/13 08:34:33;;;;;;;10.80;6.23;;;5.10;99.90;;;;;;5067800;28;20209;-73
2023/11/13 08:37:21;;;;;;;12.30;5.30;;;5.30;99.90;;;;;;5065893;28;20788;-73
2023/11/13 08:40:10;;;;;;;13.37;5.73;;;5.30;99.90;;;;;;5068819;28;20200;-73
2023/11/13 08:42:58;;;;;;;9.43;5.00;;;5.30;99.90;;;;;;5074057;28;20250;-73
2023/11/13 08:45:45;;;;;;;8.97;3.47;;;5.30;99.90;;;;;;5068864;28;20625;-73
2023/11/13 08:48:32;;;;;;;17.63;6.00;;;5.20;99.90;;;;;;5070973;28;20252;-73
2023/11/13 08:51:24;;;;;;;7.63;4.13;;;5.20;99.90;;;;;;5073472;28;20207;-73
2023/11/13 08:54:12;;;;;;;10.90;5.53;;;5.30;99.90;;;;;;5055604;28;20243;-73
2023/11/13 08:57:02;;;;;;;10.80;5.90;;;5.30;99.90;;;;;;5069817;28;20200;-73
2023/11/13 08:59:51;;;;;;;12.63;5.53;;;5.30;99.90;;;;;;5071556;28;20208;-73
2023/11/13 09:02:40;;;;;;;14.10;5.47;;;5.40;99.90;;;;;;5070051;28;20197;-73
2023/11/13 09:05:28;;;;;;;13.27;5.47;;;5.40;99.90;;;;;;5067969;28;20204;-73
2023/11/13 09:08:16;;;;;;;13.97;5.50;;;5.40;99.90;;;;;;5066257;28;20216;-73
2023/11/13 09:11:05;;;;;;;10.73;5.33;;;5.40;99.90;;;;;;5064974;28;20264;-73
2023/11/13 09:13:52;;;;;;;10.27;5.27;;;5.50;99.90;;;;;;5071096;28;20200;-73
2023/11/13 09:16:39;;;;;;;8.23;4.80;;;5.60;99.90;;;;;;5064230;28;20211;-73
2023/11/13 09:19:27;;;;;;;9.17;4.97;;;5.50;99.90;;;;;;5065689;28;20204;-73
2023/11/13 09:22:14;;;;;;;7.77;2.97;;;5.60;99.90;;;;;;5062810;28;20205;-72
2023/11/13 09:25:04;;;;;;;11.57;4.37;;;5.60;99.90;;;;;;5068972;28;20203;-73
2023/11/13 09:27:51;;;;;;;8.80;4.23;;;5.60;99.90;;;;;;5070415;28;20225;-73
2023/11/13 09:30:39;;;;;;;8.00;4.43;;;5.60;99.90;;;;;;5063381;28;20213;-73
2023/11/13 09:33:28;;;;;;;8.53;4.30;;;5.70;99.90;;;;;;5061470;28;20213;-73
2023/11/13 09:36:15;;;;;;;7.03;3.43;;;5.90;99.90;;;;;;5064978;28;20697;-73
2023/11/13 09:39:03;;;;;;;8.53;4.40;;;5.90;99.90;;;;;;5064882;28;20216;-74
2023/11/13 09:41:53;;;;;;;9.87;3.90;;;6.10;99.90;;;;;;5063495;28;20323;-73
2023/11/13 09:44:41;;;;;;;8.50;4.07;;;6.10;99.90;;;;;;5065363;28;20567;-72
2023/11/13 09:47:29;;;;;;;5.23;2.37;;;6.10;99.90;;;;;;5066722;28;20216;-72
2023/11/13 09:50:17;;;;;;;4.43;2.13;;;5.90;99.90;;;;;;5063287;28;20207;-71
2023/11/13 09:53:04;;;;;;;9.03;4.00;;;5.90;99.90;;;;;;5060707;28;20225;-72
2023/11/13 09:55:52;;;;;;;5.77;3.40;;;5.60;99.90;;;;;;5065341;28;20571;-72
2023/11/13 09:58:41;;;;;;;11.47;3.40;;;5.80;99.90;;;;;;5067705;28;20210;-72
2023/11/13 10:01:28;;;;;;;6.50;2.33;;;5.70;99.90;;;;;;5066023;28;20204;-72
2023/11/13 10:04:15;;;;;;;1.87;1.27;;;5.70;99.90;;;;;;5067784;28;20196;-72
2023/11/13 10:07:03;;;;;;;9.73;3.90;;;5.70;99.90;;;;;;5063926;28;20204;-72
2023/11/13 10:10:02;;;;;;;7.20;3.10;;;5.70;99.90;;;;;;5061533;28;20236;-72
2023/11/13 10:12:50;;;;;;;4.27;2.30;;;5.70;99.90;;;;;;5057327;28;20201;-71
2023/11/13 10:15:41;;;;;;;7.63;3.80;;;5.70;99.90;;;;;;5067929;28;20205;-73
2023/11/13 10:18:28;;;;;;;8.27;4.17;;;5.80;99.90;;;;;;5057940;28;20293;-73
2023/11/13 10:21:22;;;;;;;6.70;3.47;;;5.90;99.90;;;;;;5061862;28;20205;-72
2023/11/13 10:24:17;;;;;;;9.77;5.00;;;6.20;99.90;;;;;;5065345;28;20202;-73
2023/11/13 10:27:06;;;;;;;12.57;4.13;;;6.30;99.90;;;;;;5064047;28;20586;-73
2023/11/13 10:29:57;;;;;;;8.97;4.37;;;6.10;99.90;;;;;;5063445;28;20205;-73
2023/11/13 10:32:46;;;;;;;7.37;4.33;;;6.30;99.90;;;;;;5054964;28;20202;-73
2023/11/13 10:35:35;;;;;;;6.93;3.30;;;6.10;99.90;;;;;;5062596;28;20352;-73
2023/11/13 10:38:22;;;;;;;8.93;3.37;;;6.30;99.90;;;;;;5066598;28;20195;-73
2023/11/13 10:41:11;;;;;;;7.83;3.10;;;6.20;99.90;;;;;;5060615;28;20204;-72
2023/11/13 10:43:58;;;;;;;4.17;2.80;;;6.40;99.90;;;;;;5064711;28;20200;-71
2023/11/13 10:46:45;;;;;;;2.07;1.27;;;6.60;99.90;;;;;;5063658;28;20200;-71
2023/11/13 10:49:34;;;;;;;6.23;2.80;;;6.60;99.90;;;;;;5067294;28;20693;-71
2023/11/13 10:52:21;;;;;;;3.17;2.00;;;6.30;99.90;;;;;;5059271;28;20211;-72
2023/11/13 10:55:09;;;;;;;5.07;2.60;;;6.30;99.90;;;;;;5064391;28;20239;-71
2023/11/13 10:57:56;;;;;;;3.43;2.23;;;6.50;99.90;;;;;;5063631;28;20223;-70
2023/11/13 11:00:44;;;;;;;5.23;2.13;;;6.40;99.90;;;;;;5067511;28;20389;-71
2023/11/13 11:03:32;;;;;;;5.53;2.80;;;6.70;99.90;;;;;;5067630;28;20202;-72
2023/11/13 11:06:22;;;;;;;2.90;1.57;;;6.50;99.90;;;;;;5068469;28;20277;-72
2023/11/13 11:09:12;;;;;;;3.30;2.13;;;6.60;99.90;;;;;;5070087;28;20590;-72
2023/11/13 11:12:03;;;;;;;3.73;1.93;;;6.60;99.90;;;;;;5061871;28;20218;-72
2023/11/13 11:15:06;;;;;;;4.30;2.10;;;6.70;99.90;;;;;;5066592;28;20210;-72
2023/11/13 11:17:57;;;;;;;2.30;0.93;;;6.60;99.90;;;;;;5067362;28;20198;-72
2023/11/13 11:20:48;;;;;;;5.77;2.10;;;6.60;99.90;;;;;;5067226;28;20316;-72
2023/11/13 11:23:41;;;;;;;3.43;1.33;;;6.70;99.90;;;;;;5058916;28;20206;-72
2023/11/13 11:26:28;;;;;;;2.30;1.17;;;6.90;99.90;;;;;;5059008;28;20203;-72
2023/11/13 11:29:31;;;;;;;3.10;0.87;;;6.90;99.90;;;;;;5065406;28;20735;-72
2023/11/13 11:32:19;;;;;;;2.70;1.80;;;7.00;99.90;;;;;;5058954;28;20219;-72
2023/11/13 11:35:06;;;;;;;5.13;1.90;;;6.80;99.90;;;;;;5056251;28;20209;-72
2023/11/13 11:38:22;;;;;;;4.77;2.00;;;6.80;99.90;;;;;;5060056;28;20209;-72
2023/11/13 11:41:38;;;;;;;4.97;2.43;;;6.80;99.90;;;;;;5062340;28;20201;-72
2023/11/13 11:44:28;;;;;;;5.23;2.00;;;6.70;99.90;;;;;;5054371;28;20208;-72
2023/11/13 11:47:23;;;;;;;2.73;1.43;;;6.60;99.90;;;;;;5067402;28;20213;-70
2023/11/13 11:50:13;;;;;;;4.67;2.00;;;6.70;99.90;;;;;;5063857;28;20203;-72
2023/11/13 11:53:00;;;;;;;3.53;1.63;;;6.40;99.90;;;;;;5059818;28;20213;-72
2023/11/13 11:55:47;;;;;;;3.70;1.83;;;6.60;99.90;;;;;;5064029;28;20197;-72
2023/11/13 11:58:36;;;;;;;2.87;1.77;;;6.60;99.90;;;;;;5056578;28;20204;-72
2023/11/13 12:01:24;;;;;;;2.77;1.67;;;6.60;99.90;;;;;;5068092;28;20197;-72
2023/11/13 12:04:11;;;;;;;2.70;1.73;;;6.50;99.90;;;;;;5054328;28;20333;-72
2023/11/13 12:07:00;;;;;;;3.93;1.67;;;6.50;99.90;;;;;;5061205;28;20204;-72
2023/11/13 12:09:48;;;;;;;3.83;1.53;;;6.50;99.90;;;;;;5068223;28;20233;-72
2023/11/13 12:12:36;;;;;;;3.97;2.07;;;6.70;99.90;;;;;;5067092;28;20207;-72
2023/11/13 12:15:26;;;;;;;3.23;1.90;;;6.70;99.90;;;;;;5067325;28;20654;-72
2023/11/13 12:18:13;;;;;;;0.40;0.40;;;6.70;99.90;;;;;;5059921;28;20280;-72
2023/11/13 12:21:00;;;;;;;3.07;1.50;;;6.60;99.90;;;;;;5062095;28;20204;-72
2023/11/13 12:23:48;;;;;;;5.20;1.70;;;6.40;99.90;;;;;;5067192;28;20209;-72
2023/11/13 12:26:36;;;;;;;3.23;1.70;;;6.60;99.90;;;;;;5067373;28;20211;-71
2023/11/13 12:29:23;;;;;;;4.20;2.00;;;6.50;99.90;;;;;;5064284;28;20234;-72
2023/11/13 12:32:12;;;;;;;4.63;1.80;;;6.70;99.90;;;;;;5055643;28;20678;-72
2023/11/13 12:34:59;;;;;;;3.10;1.30;;;6.90;99.90;;;;;;5067608;28;20566;-72
2023/11/13 12:37:47;;;;;;;1.83;0.90;;;6.90;99.90;;;;;;5067340;28;20209;-71
2023/11/13 12:40:34;;;;;;;2.00;1.23;;;7.10;97.40;;;;;;5058809;28;20197;-72
2023/11/13 12:43:21;;;;;;;6.87;2.10;;;7.10;97.60;;;;;;5063899;28;20824;-72
2023/11/13 12:46:09;;;;;;;4.57;2.00;;;7.10;99.90;;;;;;5055513;28;20217;-72
2023/11/13 12:48:59;;;;;;;3.83;2.00;;;6.80;99.90;;;;;;5062576;28;20294;-72
2023/11/13 12:51:46;;;;;;;3.03;2.00;;;6.80;99.90;;;;;;5063677;28;20214;-72
2023/11/13 12:54:34;;;;;;;5.27;2.10;;;6.80;99.90;;;;;;5061723;28;20245;-72
2023/11/13 12:57:22;;;;;;;6.60;2.57;;;7.00;99.90;;;;;;5065933;28;20206;-72
2023/11/13 13:00:15;;;;;;;8.13;2.90;;;7.10;99.90;;;;;;5055588;28;20197;-72
2023/11/13 13:03:04;;;;;;;5.37;2.13;;;7.10;99.90;;;;;;5066350;28;20209;-72
2023/11/13 13:05:55;;;;;;;4.27;1.93;;;7.00;99.90;;;;;;5068272;28;20215;-72
2023/11/13 13:08:42;;;;;;;2.77;1.47;;;6.80;99.90;;;;;;5067703;28;20371;-72
2023/11/13 13:11:30;;;;;;;7.40;3.17;;;6.80;99.90;;;;;;5065786;28;20193;-73
2023/11/13 13:14:17;;;;;;;5.93;2.90;;;6.70;99.90;;;;;;5065840;28;20337;-73
2023/11/13 13:17:07;;;;;;;7.33;2.70;;;6.60;99.90;;;;;;5066817;28;20680;-73
2023/11/13 13:19:57;;;;;;;5.27;2.53;;;6.50;99.90;;;;;;5066415;28;20205;-73
2023/11/13 13:22:46;;;;;;;7.43;2.60;;;6.80;99.90;;;;;;5067149;28;20324;-73
2023/11/13 13:25:35;;;;;;;5.03;2.20;;;6.90;99.90;;;;;;5067921;28;20207;-73
2023/11/13 13:28:22;;;;;;;5.13;2.20;;;6.70;99.90;;;;;;5064905;28;20571;-73
2023/11/13 13:31:09;;;;;;;4.77;2.40;;;6.70;99.90;;;;;;5064281;28;20281;-73
2023/11/13 13:33:56;;;;;;;7.17;2.70;;;6.50;99.90;;;;;;5065821;28;20203;-73
2023/11/13 13:36:45;;;;;;;4.77;2.50;;;6.60;99.90;;;;;;5067490;28;20709;-73
2023/11/13 13:39:35;;;;;;;5.77;2.57;;;6.70;99.90;;;;;;5064624;28;20558;-73
2023/11/13 13:42:25;;;;;;;5.93;2.50;;;6.80;99.90;;;;;;5063710;28;20949;-73
2023/11/13 13:45:17;;;;;;;5.40;2.80;;;6.90;99.90;;;;;;5071052;28;20261;-73
2023/11/13 13:48:04;;;;;;;8.47;2.23;;;6.90;99.90;;;;;;5062011;28;20215;-73
2023/11/13 13:50:52;;;;;;;4.77;2.33;;;7.00;99.90;;;;;;5065683;28;20667;-73
2023/11/13 13:53:39;;;;;;;6.53;2.73;;;7.10;99.90;;;;;;5060864;28;20282;-73
2023/11/13 13:56:29;;;;;;;4.57;2.10;;;7.20;99.90;;;;;;5064976;28;20208;-73
2023/11/13 13:59:20;;;;;;;6.20;2.70;;;7.30;99.90;;;;;;5067369;28;20199;-73
2023/11/13 14:02:07;;;;;;;5.27;2.30;;;7.50;99.90;;;;;;5067874;28;20692;-73
2023/11/13 14:04:55;;;;;;;5.83;2.33;;;7.60;99.90;;;;;;5061901;28;20287;-74
2023/11/13 14:07:42;;;;;;;10.30;2.80;;;7.60;99.90;;;;;;5061591;28;20200;-73
2023/11/13 14:10:30;;;;;;;6.07;2.33;;;7.60;99.90;;;;;;5052943;28;20863;-73
2023/11/13 14:13:19;;;;;;;5.30;2.30;;;7.30;99.90;;;;;;5062283;28;20307;-73
2023/11/13 14:16:07;;;;;;;5.87;2.80;;;7.50;99.90;;;;;;5064657;28;20216;-73
2023/11/13 14:18:57;;;;;;;6.13;2.73;;;7.70;99.90;;;;;;5060452;28;20278;-73
2023/11/13 14:21:45;;;;;;;8.10;2.83;;;7.90;99.90;;;;;;5064592;28;20207;-73
2023/11/13 14:24:33;;;;;;;5.97;2.80;;;7.80;99.90;;;;;;5064045;28;20699;-73
2023/11/13 14:27:20;;;;;;;13.37;2.50;;;7.30;99.90;;;;;;5063954;28;20205;-73
2023/11/13 14:30:11;;;;;;;6.27;2.60;;;7.00;99.90;;;;;;5063638;28;20221;-73
2023/11/13 14:32:58;;;;;;;6.67;2.77;;;6.70;99.90;;;;;;5059299;28;20234;-73
2023/11/13 14:35:46;;;;;;;8.13;2.90;;;6.40;99.90;;;;;;5066981;28;20587;-73
2023/11/13 14:38:33;;;;;;;8.57;3.10;;;5.80;99.90;;;;;;5064225;28;20597;-73